sensor_id;sensor_type;location;lat;lon;timestamp;P1;durP1;ratioP1;P2;durP2;ratioP2
14516;SDS011;7344;50.864;4.362;2022-10-31T00:00:16;12.37;;;7.60;;
14516;SDS011;7344;50.864;4.362;2022-10-31T00:02:42;10.97;;;7.53;;
14516;SDS011;7344;50.864;4.362;2022-10-31T00:05:08;9.67;;;7.87;;
14516;SDS011;7344;50.864;4.362;2022-10-31T00:07:33;11.20;;;7.50;;
14516;SDS011;7344;50.864;4.362;2022-10-31T00:09:59;10.50;;;7.40;;
14516;SDS011;7344;50.864;4.362;2022-10-31T00:12:25;11.90;;;7.80;;
14516;SDS011;7344;50.864;4.362;2022-10-31T00:14:51;14.73;;;7.73;;
14516;SDS011;7344;50.864;4.362;2022-10-31T00:17:17;13.00;;;8.00;;
14516;SDS011;7344;50.864;4.362;2022-10-31T00:19:42;11.73;;;7.70;;
14516;SDS011;7344;50.864;4.362;2022-10-31T00:22:08;18.60;;;7.93;;
14516;SDS011;7344;50.864;4.362;2022-10-31T00:24:33;13.80;;;7.30;;
14516;SDS011;7344;50.864;4.362;2022-10-31T00:26:59;13.30;;;8.67;;
14516;SDS011;7344;50.864;4.362;2022-10-31T00:29:25;14.77;;;8.57;;
14516;SDS011;7344;50.864;4.362;2022-10-31T00:31:51;11.17;;;8.40;;
14516;SDS011;7344;50.864;4.362;2022-10-31T00:34:17;13.57;;;8.20;;
14516;SDS011;7344;50.864;4.362;2022-10-31T00:36:42;12.10;;;8.17;;
14516;SDS011;7344;50.864;4.362;2022-10-31T00:39:08;10.37;;;7.40;;
14516;SDS011;7344;50.864;4.362;2022-10-31T00:41:34;12.80;;;8.13;;
14516;SDS011;7344;50.864;4.362;2022-10-31T00:43:59;13.13;;;8.20;;
14516;SDS011;7344;50.864;4.362;2022-10-31T00:46:25;14.47;;;8.03;;
14516;SDS011;7344;50.864;4.362;2022-10-31T00:48:50;14.30;;;8.17;;
14516;SDS011;7344;50.864;4.362;2022-10-31T00:51:16;10.77;;;7.93;;
14516;SDS011;7344;50.864;4.362;2022-10-31T00:53:41;12.77;;;8.60;;
14516;SDS011;7344;50.864;4.362;2022-10-31T00:56:07;13.10;;;8.20;;
14516;SDS011;7344;50.864;4.362;2022-10-31T00:58:33;13.03;;;7.93;;
14516;SDS011;7344;50.864;4.362;2022-10-31T01:00:58;14.70;;;8.13;;
14516;SDS011;7344;50.864;4.362;2022-10-31T01:03:24;13.57;;;8.30;;
14516;SDS011;7344;50.864;4.362;2022-10-31T01:06:05;11.10;;;7.97;;
14516;SDS011;7344;50.864;4.362;2022-10-31T01:08:35;13.87;;;7.90;;
14516;SDS011;7344;50.864;4.362;2022-10-31T01:13:27;10.40;;;8.00;;
14516;SDS011;7344;50.864;4.362;2022-10-31T01:15:53;10.67;;;7.57;;
14516;SDS011;7344;50.864;4.362;2022-10-31T01:18:20;9.73;;;7.03;;
14516;SDS011;7344;50.864;4.362;2022-10-31T01:20:45;13.37;;;7.00;;
14516;SDS011;7344;50.864;4.362;2022-10-31T01:23:11;12.33;;;6.60;;
14516;SDS011;7344;50.864;4.362;2022-10-31T01:25:37;12.70;;;7.10;;
14516;SDS011;7344;50.864;4.362;2022-10-31T01:28:02;8.40;;;6.00;;
14516;SDS011;7344;50.864;4.362;2022-10-31T01:30:28;8.23;;;5.80;;
14516;SDS011;7344;50.864;4.362;2022-10-31T01:32:53;9.70;;;5.60;;
14516;SDS011;7344;50.864;4.362;2022-10-31T01:35:19;10.90;;;6.00;;
14516;SDS011;7344;50.864;4.362;2022-10-31T01:37:44;10.10;;;6.50;;
14516;SDS011;7344;50.864;4.362;2022-10-31T01:40:10;11.13;;;6.17;;
14516;SDS011;7344;50.864;4.362;2022-10-31T01:42:36;6.93;;;6.07;;
14516;SDS011;7344;50.864;4.362;2022-10-31T01:45:01;11.57;;;6.07;;
14516;SDS011;7344;50.864;4.362;2022-10-31T01:50:03;10.63;;;5.60;;
14516;SDS011;7344;50.864;4.362;2022-10-31T01:52:52;6.60;;;5.50;;
14516;SDS011;7344;50.864;4.362;2022-10-31T01:55:39;8.97;;;6.20;;
14516;SDS011;7344;50.864;4.362;2022-10-31T01:58:16;11.30;;;6.40;;
14516;SDS011;7344;50.864;4.362;2022-10-31T02:00:45;10.87;;;6.80;;
14516;SDS011;7344;50.864;4.362;2022-10-31T02:03:14;9.63;;;6.17;;
14516;SDS011;7344;50.864;4.362;2022-10-31T02:05:40;7.33;;;6.53;;
14516;SDS011;7344;50.864;4.362;2022-10-31T02:08:29;12.43;;;7.00;;
14516;SDS011;7344;50.864;4.362;2022-10-31T02:10:54;9.53;;;7.00;;
14516;SDS011;7344;50.864;4.362;2022-10-31T02:13:21;8.47;;;6.60;;
14516;SDS011;7344;50.864;4.362;2022-10-31T02:15:51;11.73;;;7.27;;
14516;SDS011;7344;50.864;4.362;2022-10-31T02:18:20;10.27;;;6.90;;
14516;SDS011;7344;50.864;4.362;2022-10-31T02:32:25;12.53;;;8.13;;
14516;SDS011;7344;50.864;4.362;2022-10-31T02:34:55;14.43;;;7.33;;
14516;SDS011;7344;50.864;4.362;2022-10-31T02:37:34;9.50;;;7.07;;
14516;SDS011;7344;50.864;4.362;2022-10-31T02:42:46;9.30;;;8.30;;
14516;SDS011;7344;50.864;4.362;2022-10-31T02:48:19;14.83;;;7.80;;
14516;SDS011;7344;50.864;4.362;2022-10-31T02:50:50;14.77;;;8.40;;
14516;SDS011;7344;50.864;4.362;2022-10-31T02:53:21;13.57;;;7.87;;
14516;SDS011;7344;50.864;4.362;2022-10-31T02:55:51;14.07;;;7.73;;
14516;SDS011;7344;50.864;4.362;2022-10-31T02:58:24;16.93;;;7.90;;
14516;SDS011;7344;50.864;4.362;2022-10-31T03:00:56;12.07;;;8.03;;
14516;SDS011;7344;50.864;4.362;2022-10-31T03:06:25;12.73;;;7.70;;
14516;SDS011;7344;50.864;4.362;2022-10-31T03:08:59;12.03;;;7.87;;
14516;SDS011;7344;50.864;4.362;2022-10-31T03:11:39;15.30;;;8.67;;
14516;SDS011;7344;50.864;4.362;2022-10-31T03:14:38;17.70;;;9.23;;
14516;SDS011;7344;50.864;4.362;2022-10-31T03:17:09;12.67;;;8.50;;
14516;SDS011;7344;50.864;4.362;2022-10-31T03:19:43;10.77;;;8.57;;
14516;SDS011;7344;50.864;4.362;2022-10-31T03:22:22;15.13;;;9.17;;
14516;SDS011;7344;50.864;4.362;2022-10-31T03:24:50;12.83;;;9.40;;
14516;SDS011;7344;50.864;4.362;2022-10-31T03:27:20;12.77;;;8.93;;
14516;SDS011;7344;50.864;4.362;2022-10-31T03:29:50;15.43;;;9.87;;
14516;SDS011;7344;50.864;4.362;2022-10-31T03:32:21;13.60;;;9.13;;
14516;SDS011;7344;50.864;4.362;2022-10-31T03:34:55;13.77;;;8.83;;
14516;SDS011;7344;50.864;4.362;2022-10-31T03:37:24;12.70;;;9.47;;
14516;SDS011;7344;50.864;4.362;2022-10-31T03:39:52;13.50;;;9.23;;
14516;SDS011;7344;50.864;4.362;2022-10-31T03:42:22;14.77;;;8.77;;
14516;SDS011;7344;50.864;4.362;2022-10-31T03:45:13;13.43;;;9.37;;
14516;SDS011;7344;50.864;4.362;2022-10-31T03:47:42;11.70;;;9.13;;
14516;SDS011;7344;50.864;4.362;2022-10-31T03:50:09;15.07;;;9.63;;
14516;SDS011;7344;50.864;4.362;2022-10-31T03:52:41;17.73;;;9.77;;
14516;SDS011;7344;50.864;4.362;2022-10-31T03:55:29;14.90;;;10.10;;
14516;SDS011;7344;50.864;4.362;2022-10-31T03:58:03;13.90;;;10.17;;
14516;SDS011;7344;50.864;4.362;2022-10-31T04:00:36;12.63;;;9.77;;
14516;SDS011;7344;50.864;4.362;2022-10-31T04:03:07;14.33;;;9.50;;
14516;SDS011;7344;50.864;4.362;2022-10-31T04:05:36;13.57;;;9.63;;
14516;SDS011;7344;50.864;4.362;2022-10-31T04:08:04;16.27;;;10.33;;
14516;SDS011;7344;50.864;4.362;2022-10-31T04:10:34;16.63;;;10.00;;
14516;SDS011;7344;50.864;4.362;2022-10-31T04:13:09;21.37;;;10.77;;
14516;SDS011;7344;50.864;4.362;2022-10-31T04:15:39;18.67;;;10.50;;
14516;SDS011;7344;50.864;4.362;2022-10-31T04:18:07;24.00;;;10.30;;
14516;SDS011;7344;50.864;4.362;2022-10-31T04:20:37;25.93;;;12.43;;
14516;SDS011;7344;50.864;4.362;2022-10-31T04:23:04;32.30;;;12.67;;
14516;SDS011;7344;50.864;4.362;2022-10-31T04:25:30;40.33;;;12.60;;
14516;SDS011;7344;50.864;4.362;2022-10-31T04:27:56;29.57;;;12.63;;
14516;SDS011;7344;50.864;4.362;2022-10-31T04:30:21;38.47;;;12.60;;
14516;SDS011;7344;50.864;4.362;2022-10-31T04:32:47;31.80;;;12.23;;
14516;SDS011;7344;50.864;4.362;2022-10-31T04:35:13;37.63;;;11.80;;
14516;SDS011;7344;50.864;4.362;2022-10-31T04:37:39;31.10;;;13.07;;
14516;SDS011;7344;50.864;4.362;2022-10-31T04:40:05;28.17;;;12.00;;
14516;SDS011;7344;50.864;4.362;2022-10-31T04:42:31;23.20;;;12.13;;
14516;SDS011;7344;50.864;4.362;2022-10-31T04:44:56;28.43;;;11.97;;
14516;SDS011;7344;50.864;4.362;2022-10-31T04:47:22;17.07;;;10.97;;
14516;SDS011;7344;50.864;4.362;2022-10-31T04:49:47;21.50;;;11.90;;
14516;SDS011;7344;50.864;4.362;2022-10-31T04:52:13;16.57;;;11.33;;
14516;SDS011;7344;50.864;4.362;2022-10-31T04:54:39;22.90;;;11.67;;
14516;SDS011;7344;50.864;4.362;2022-10-31T04:57:04;19.13;;;11.90;;
14516;SDS011;7344;50.864;4.362;2022-10-31T04:59:30;22.77;;;11.77;;
14516;SDS011;7344;50.864;4.362;2022-10-31T05:01:55;19.10;;;11.33;;
14516;SDS011;7344;50.864;4.362;2022-10-31T05:04:21;16.73;;;10.97;;
14516;SDS011;7344;50.864;4.362;2022-10-31T05:06:47;17.10;;;10.90;;
14516;SDS011;7344;50.864;4.362;2022-10-31T05:09:12;19.03;;;11.83;;
14516;SDS011;7344;50.864;4.362;2022-10-31T05:11:38;17.00;;;11.37;;
14516;SDS011;7344;50.864;4.362;2022-10-31T05:14:03;16.73;;;10.80;;
14516;SDS011;7344;50.864;4.362;2022-10-31T05:16:29;14.67;;;10.40;;
14516;SDS011;7344;50.864;4.362;2022-10-31T05:18:55;12.97;;;10.47;;
14516;SDS011;7344;50.864;4.362;2022-10-31T05:21:20;18.40;;;11.23;;
14516;SDS011;7344;50.864;4.362;2022-10-31T05:23:46;17.67;;;11.07;;
14516;SDS011;7344;50.864;4.362;2022-10-31T05:26:12;16.77;;;11.70;;
14516;SDS011;7344;50.864;4.362;2022-10-31T05:28:37;19.63;;;12.20;;
14516;SDS011;7344;50.864;4.362;2022-10-31T05:31:03;16.67;;;11.07;;
14516;SDS011;7344;50.864;4.362;2022-10-31T05:33:28;18.90;;;12.10;;
14516;SDS011;7344;50.864;4.362;2022-10-31T05:35:54;24.53;;;12.87;;
14516;SDS011;7344;50.864;4.362;2022-10-31T05:38:20;19.97;;;11.90;;
14516;SDS011;7344;50.864;4.362;2022-10-31T05:40:45;19.50;;;12.80;;
14516;SDS011;7344;50.864;4.362;2022-10-31T05:43:11;18.57;;;12.87;;
14516;SDS011;7344;50.864;4.362;2022-10-31T05:45:36;21.10;;;12.73;;
14516;SDS011;7344;50.864;4.362;2022-10-31T05:48:02;19.93;;;13.23;;
14516;SDS011;7344;50.864;4.362;2022-10-31T05:50:29;21.27;;;13.97;;
14516;SDS011;7344;50.864;4.362;2022-10-31T05:52:59;19.20;;;13.50;;
14516;SDS011;7344;50.864;4.362;2022-10-31T05:55:27;21.73;;;13.50;;
14516;SDS011;7344;50.864;4.362;2022-10-31T05:57:53;19.50;;;13.10;;
14516;SDS011;7344;50.864;4.362;2022-10-31T06:00:19;19.80;;;12.23;;
14516;SDS011;7344;50.864;4.362;2022-10-31T06:02:46;19.10;;;12.23;;
14516;SDS011;7344;50.864;4.362;2022-10-31T06:05:12;18.53;;;12.53;;
14516;SDS011;7344;50.864;4.362;2022-10-31T06:07:38;15.67;;;12.07;;
14516;SDS011;7344;50.864;4.362;2022-10-31T06:10:04;19.03;;;12.67;;
14516;SDS011;7344;50.864;4.362;2022-10-31T06:12:32;19.67;;;11.87;;
14516;SDS011;7344;50.864;4.362;2022-10-31T06:15:05;25.37;;;12.50;;
14516;SDS011;7344;50.864;4.362;2022-10-31T06:17:32;21.93;;;12.30;;
14516;SDS011;7344;50.864;4.362;2022-10-31T06:20:00;17.23;;;11.83;;
14516;SDS011;7344;50.864;4.362;2022-10-31T06:22:26;21.43;;;12.93;;
14516;SDS011;7344;50.864;4.362;2022-10-31T06:24:52;19.23;;;11.67;;
14516;SDS011;7344;50.864;4.362;2022-10-31T06:27:18;19.73;;;12.40;;
14516;SDS011;7344;50.864;4.362;2022-10-31T06:29:44;17.30;;;11.93;;
14516;SDS011;7344;50.864;4.362;2022-10-31T06:32:13;17.40;;;11.80;;
14516;SDS011;7344;50.864;4.362;2022-10-31T06:34:39;16.07;;;11.50;;
14516;SDS011;7344;50.864;4.362;2022-10-31T06:37:09;16.57;;;11.97;;
14516;SDS011;7344;50.864;4.362;2022-10-31T06:39:35;18.60;;;12.30;;
14516;SDS011;7344;50.864;4.362;2022-10-31T06:42:01;18.57;;;12.30;;
14516;SDS011;7344;50.864;4.362;2022-10-31T06:44:27;18.67;;;12.10;;
14516;SDS011;7344;50.864;4.362;2022-10-31T06:46:53;20.63;;;12.00;;
14516;SDS011;7344;50.864;4.362;2022-10-31T06:49:18;20.43;;;11.43;;
14516;SDS011;7344;50.864;4.362;2022-10-31T06:51:46;16.70;;;11.30;;
14516;SDS011;7344;50.864;4.362;2022-10-31T06:54:13;16.50;;;10.97;;
14516;SDS011;7344;50.864;4.362;2022-10-31T06:56:38;16.57;;;11.20;;
14516;SDS011;7344;50.864;4.362;2022-10-31T06:59:04;17.57;;;11.47;;
14516;SDS011;7344;50.864;4.362;2022-10-31T07:01:29;15.73;;;10.87;;
14516;SDS011;7344;50.864;4.362;2022-10-31T07:03:55;18.50;;;11.87;;
14516;SDS011;7344;50.864;4.362;2022-10-31T07:06:21;15.80;;;11.30;;
14516;SDS011;7344;50.864;4.362;2022-10-31T07:08:46;16.90;;;11.97;;
14516;SDS011;7344;50.864;4.362;2022-10-31T07:11:12;16.17;;;11.37;;
14516;SDS011;7344;50.864;4.362;2022-10-31T07:13:38;16.43;;;11.87;;
14516;SDS011;7344;50.864;4.362;2022-10-31T07:16:04;18.83;;;11.80;;
14516;SDS011;7344;50.864;4.362;2022-10-31T07:18:31;18.37;;;12.10;;
14516;SDS011;7344;50.864;4.362;2022-10-31T07:20:58;22.03;;;12.90;;
14516;SDS011;7344;50.864;4.362;2022-10-31T07:23:23;20.10;;;11.33;;
14516;SDS011;7344;50.864;4.362;2022-10-31T07:25:53;15.13;;;11.03;;
14516;SDS011;7344;50.864;4.362;2022-10-31T07:28:23;14.53;;;11.07;;
14516;SDS011;7344;50.864;4.362;2022-10-31T07:30:52;16.00;;;11.37;;
14516;SDS011;7344;50.864;4.362;2022-10-31T07:33:18;18.93;;;11.87;;
14516;SDS011;7344;50.864;4.362;2022-10-31T07:35:44;17.63;;;11.80;;
14516;SDS011;7344;50.864;4.362;2022-10-31T07:38:10;16.37;;;11.90;;
14516;SDS011;7344;50.864;4.362;2022-10-31T07:40:37;14.80;;;12.03;;
14516;SDS011;7344;50.864;4.362;2022-10-31T07:43:03;18.63;;;11.57;;
14516;SDS011;7344;50.864;4.362;2022-10-31T07:45:29;14.33;;;11.37;;
14516;SDS011;7344;50.864;4.362;2022-10-31T07:47:55;19.47;;;11.60;;
14516;SDS011;7344;50.864;4.362;2022-10-31T07:50:24;17.60;;;10.70;;
14516;SDS011;7344;50.864;4.362;2022-10-31T07:53:04;17.30;;;10.70;;
14516;SDS011;7344;50.864;4.362;2022-10-31T07:55:33;18.00;;;11.13;;
14516;SDS011;7344;50.864;4.362;2022-10-31T07:58:01;13.67;;;11.77;;
14516;SDS011;7344;50.864;4.362;2022-10-31T08:00:38;13.50;;;10.73;;
14516;SDS011;7344;50.864;4.362;2022-10-31T08:05:32;20.37;;;11.17;;
14516;SDS011;7344;50.864;4.362;2022-10-31T08:07:58;14.43;;;10.87;;
14516;SDS011;7344;50.864;4.362;2022-10-31T08:10:24;14.27;;;9.97;;
14516;SDS011;7344;50.864;4.362;2022-10-31T08:13:04;16.50;;;11.27;;
14516;SDS011;7344;50.864;4.362;2022-10-31T08:15:31;12.07;;;9.77;;
14516;SDS011;7344;50.864;4.362;2022-10-31T08:17:59;12.70;;;9.83;;
14516;SDS011;7344;50.864;4.362;2022-10-31T08:20:25;14.43;;;10.03;;
14516;SDS011;7344;50.864;4.362;2022-10-31T08:22:54;13.50;;;10.30;;
14516;SDS011;7344;50.864;4.362;2022-10-31T08:25:24;13.87;;;9.93;;
14516;SDS011;7344;50.864;4.362;2022-10-31T08:27:52;12.30;;;9.50;;
14516;SDS011;7344;50.864;4.362;2022-10-31T08:30:19;15.93;;;10.07;;
14516;SDS011;7344;50.864;4.362;2022-10-31T08:32:46;16.40;;;10.70;;
14516;SDS011;7344;50.864;4.362;2022-10-31T08:35:12;12.57;;;10.37;;
14516;SDS011;7344;50.864;4.362;2022-10-31T08:37:37;12.70;;;9.70;;
14516;SDS011;7344;50.864;4.362;2022-10-31T08:40:03;11.13;;;9.80;;
14516;SDS011;7344;50.864;4.362;2022-10-31T08:42:30;14.23;;;9.80;;
14516;SDS011;7344;50.864;4.362;2022-10-31T08:44:55;11.47;;;9.10;;
14516;SDS011;7344;50.864;4.362;2022-10-31T08:47:21;18.60;;;10.63;;
14516;SDS011;7344;50.864;4.362;2022-10-31T08:49:46;19.60;;;12.20;;
14516;SDS011;7344;50.864;4.362;2022-10-31T08:52:12;17.83;;;12.63;;
14516;SDS011;7344;50.864;4.362;2022-10-31T08:54:39;18.50;;;13.00;;
14516;SDS011;7344;50.864;4.362;2022-10-31T08:57:05;18.57;;;12.83;;
14516;SDS011;7344;50.864;4.362;2022-10-31T08:59:30;17.83;;;13.03;;
14516;SDS011;7344;50.864;4.362;2022-10-31T09:01:56;16.67;;;13.10;;
14516;SDS011;7344;50.864;4.362;2022-10-31T09:04:22;16.27;;;11.93;;
14516;SDS011;7344;50.864;4.362;2022-10-31T09:06:47;16.20;;;10.27;;
14516;SDS011;7344;50.864;4.362;2022-10-31T09:09:13;11.43;;;9.57;;
14516;SDS011;7344;50.864;4.362;2022-10-31T09:11:38;11.20;;;9.20;;
14516;SDS011;7344;50.864;4.362;2022-10-31T09:14:04;11.20;;;10.00;;
14516;SDS011;7344;50.864;4.362;2022-10-31T09:16:29;10.87;;;7.83;;
14516;SDS011;7344;50.864;4.362;2022-10-31T09:18:55;8.80;;;7.90;;
14516;SDS011;7344;50.864;4.362;2022-10-31T09:21:21;10.07;;;8.30;;
14516;SDS011;7344;50.864;4.362;2022-10-31T09:23:46;13.53;;;8.93;;
14516;SDS011;7344;50.864;4.362;2022-10-31T09:26:12;10.83;;;7.60;;
14516;SDS011;7344;50.864;4.362;2022-10-31T09:28:38;12.40;;;7.83;;
14516;SDS011;7344;50.864;4.362;2022-10-31T09:31:03;10.77;;;8.13;;
14516;SDS011;7344;50.864;4.362;2022-10-31T09:33:29;12.80;;;7.77;;
14516;SDS011;7344;50.864;4.362;2022-10-31T09:35:54;9.63;;;7.50;;
14516;SDS011;7344;50.864;4.362;2022-10-31T09:38:22;11.53;;;8.23;;
14516;SDS011;7344;50.864;4.362;2022-10-31T09:46:57;11.13;;;7.80;;
14516;SDS011;7344;50.864;4.362;2022-10-31T09:54:48;10.23;;;7.93;;
14516;SDS011;7344;50.864;4.362;2022-10-31T09:57:25;12.20;;;8.03;;
14516;SDS011;7344;50.864;4.362;2022-10-31T09:59:54;13.43;;;7.93;;
14516;SDS011;7344;50.864;4.362;2022-10-31T10:05:08;11.87;;;8.10;;
14516;SDS011;7344;50.864;4.362;2022-10-31T10:10:39;10.63;;;8.10;;
14516;SDS011;7344;50.864;4.362;2022-10-31T10:13:27;12.47;;;8.50;;
14516;SDS011;7344;50.864;4.362;2022-10-31T10:21:27;14.95;;;10.35;;
14516;SDS011;7344;50.864;4.362;2022-10-31T10:26:58;13.93;;;9.90;;
14516;SDS011;7344;50.864;4.362;2022-10-31T10:29:28;16.87;;;10.83;;
14516;SDS011;7344;50.864;4.362;2022-10-31T10:32:51;15.50;;;10.37;;
14516;SDS011;7344;50.864;4.362;2022-10-31T10:37:49;13.03;;;8.30;;
14516;SDS011;7344;50.864;4.362;2022-10-31T10:40:21;16.47;;;9.43;;
14516;SDS011;7344;50.864;4.362;2022-10-31T10:45:58;11.03;;;9.03;;
14516;SDS011;7344;50.864;4.362;2022-10-31T11:00:29;15.33;;;9.67;;
14516;SDS011;7344;50.864;4.362;2022-10-31T11:03:11;15.07;;;10.00;;
14516;SDS011;7344;50.864;4.362;2022-10-31T11:08:27;14.97;;;11.70;;
14516;SDS011;7344;50.864;4.362;2022-10-31T11:10:58;19.23;;;11.20;;
14516;SDS011;7344;50.864;4.362;2022-10-31T11:13:28;14.60;;;10.45;;
14516;SDS011;7344;50.864;4.362;2022-10-31T11:16:09;15.80;;;11.00;;
14516;SDS011;7344;50.864;4.362;2022-10-31T11:19:05;13.90;;;10.00;;
14516;SDS011;7344;50.864;4.362;2022-10-31T11:21:33;18.57;;;10.97;;
14516;SDS011;7344;50.864;4.362;2022-10-31T11:26:34;18.57;;;12.00;;
14516;SDS011;7344;50.864;4.362;2022-10-31T11:29:02;21.47;;;12.33;;
14516;SDS011;7344;50.864;4.362;2022-10-31T11:31:30;21.77;;;12.53;;
14516;SDS011;7344;50.864;4.362;2022-10-31T11:33:59;19.30;;;12.30;;
14516;SDS011;7344;50.864;4.362;2022-10-31T11:36:27;18.33;;;10.53;;
14516;SDS011;7344;50.864;4.362;2022-10-31T11:38:56;15.73;;;10.37;;
14516;SDS011;7344;50.864;4.362;2022-10-31T11:41:30;17.13;;;9.97;;
14516;SDS011;7344;50.864;4.362;2022-10-31T11:44:04;16.37;;;11.50;;
14516;SDS011;7344;50.864;4.362;2022-10-31T11:46:44;15.47;;;9.67;;
14516;SDS011;7344;50.864;4.362;2022-10-31T11:49:16;15.40;;;10.30;;
14516;SDS011;7344;50.864;4.362;2022-10-31T11:51:50;18.00;;;9.93;;
14516;SDS011;7344;50.864;4.362;2022-10-31T11:54:20;17.90;;;10.10;;
14516;SDS011;7344;50.864;4.362;2022-10-31T11:56:49;14.80;;;8.90;;
14516;SDS011;7344;50.864;4.362;2022-10-31T11:59:28;21.03;;;12.03;;
14516;SDS011;7344;50.864;4.362;2022-10-31T12:01:56;19.70;;;11.80;;
14516;SDS011;7344;50.864;4.362;2022-10-31T12:04:43;15.10;;;9.40;;
14516;SDS011;7344;50.864;4.362;2022-10-31T12:07:16;16.77;;;9.93;;
14516;SDS011;7344;50.864;4.362;2022-10-31T12:09:42;15.03;;;9.70;;
14516;SDS011;7344;50.864;4.362;2022-10-31T12:31:13;12.00;;;8.05;;
14516;SDS011;7344;50.864;4.362;2022-10-31T12:39:04;16.85;;;9.85;;
14516;SDS011;7344;50.864;4.362;2022-10-31T12:44:30;18.92;;;9.95;;
14516;SDS011;7344;50.864;4.362;2022-10-31T12:47:42;12.85;;;8.98;;
14516;SDS011;7344;50.864;4.362;2022-10-31T12:58:55;13.93;;;8.25;;
14516;SDS011;7344;50.864;4.362;2022-10-31T13:01:30;16.85;;;8.65;;
14516;SDS011;7344;50.864;4.362;2022-10-31T13:06:48;11.88;;;8.13;;
14516;SDS011;7344;50.864;4.362;2022-10-31T13:09:17;12.90;;;8.90;;
14516;SDS011;7344;50.864;4.362;2022-10-31T13:11:57;12.45;;;7.38;;
14516;SDS011;7344;50.864;4.362;2022-10-31T13:14:38;15.20;;;8.88;;
14516;SDS011;7344;50.864;4.362;2022-10-31T13:17:06;16.40;;;8.15;;
14516;SDS011;7344;50.864;4.362;2022-10-31T13:19:44;13.55;;;7.90;;
14516;SDS011;7344;50.864;4.362;2022-10-31T13:27:48;18.38;;;9.27;;
14516;SDS011;7344;50.864;4.362;2022-10-31T13:30:22;13.65;;;7.07;;
14516;SDS011;7344;50.864;4.362;2022-10-31T13:43:28;14.25;;;8.93;;
14516;SDS011;7344;50.864;4.362;2022-10-31T13:46:20;16.00;;;9.57;;
14516;SDS011;7344;50.864;4.362;2022-10-31T13:48:50;17.60;;;10.20;;
14516;SDS011;7344;50.864;4.362;2022-10-31T13:51:24;17.08;;;9.27;;
14516;SDS011;7344;50.864;4.362;2022-10-31T13:56:49;22.48;;;9.57;;
14516;SDS011;7344;50.864;4.362;2022-10-31T13:59:17;13.38;;;8.00;;
14516;SDS011;7344;50.864;4.362;2022-10-31T14:01:47;23.98;;;14.32;;
14516;SDS011;7344;50.864;4.362;2022-10-31T14:04:16;14.93;;;8.35;;
14516;SDS011;7344;50.864;4.362;2022-10-31T14:07:06;19.90;;;12.55;;
14516;SDS011;7344;50.864;4.362;2022-10-31T14:09:38;17.67;;;9.85;;
14516;SDS011;7344;50.864;4.362;2022-10-31T14:12:06;18.73;;;10.85;;
14516;SDS011;7344;50.864;4.362;2022-10-31T14:14:48;22.73;;;10.23;;
14516;SDS011;7344;50.864;4.362;2022-10-31T14:17:20;15.05;;;9.07;;
14516;SDS011;7344;50.864;4.362;2022-10-31T14:22:35;15.10;;;7.45;;
14516;SDS011;7344;50.864;4.362;2022-10-31T14:25:49;10.63;;;7.85;;
14516;SDS011;7344;50.864;4.362;2022-10-31T14:27:49;19.45;;;11.45;;
14516;SDS011;7344;50.864;4.362;2022-10-31T14:30:17;11.27;;;7.25;;
14516;SDS011;7344;50.864;4.362;2022-10-31T14:32:54;17.20;;;6.78;;
14516;SDS011;7344;50.864;4.362;2022-10-31T14:35:27;11.75;;;6.30;;
14516;SDS011;7344;50.864;4.362;2022-10-31T14:38:14;11.38;;;5.57;;
14516;SDS011;7344;50.864;4.362;2022-10-31T14:50:56;12.57;;;5.90;;
14516;SDS011;7344;50.864;4.362;2022-10-31T14:53:41;13.70;;;6.75;;
14516;SDS011;7344;50.864;4.362;2022-10-31T14:56:17;10.95;;;5.80;;
14516;SDS011;7344;50.864;4.362;2022-10-31T14:59:14;12.55;;;6.40;;
14516;SDS011;7344;50.864;4.362;2022-10-31T15:01:51;15.52;;;7.82;;
14516;SDS011;7344;50.864;4.362;2022-10-31T15:04:34;11.52;;;6.35;;
14516;SDS011;7344;50.864;4.362;2022-10-31T15:09:56;11.45;;;6.72;;
14516;SDS011;7344;50.864;4.362;2022-10-31T15:12:30;17.02;;;7.05;;
14516;SDS011;7344;50.864;4.362;2022-10-31T15:14:57;15.88;;;6.68;;
14516;SDS011;7344;50.864;4.362;2022-10-31T15:17:35;12.95;;;7.60;;
14516;SDS011;7344;50.864;4.362;2022-10-31T15:20:06;15.18;;;9.30;;
14516;SDS011;7344;50.864;4.362;2022-10-31T15:22:35;14.40;;;8.77;;
14516;SDS011;7344;50.864;4.362;2022-10-31T15:25:01;20.08;;;7.43;;
14516;SDS011;7344;50.864;4.362;2022-10-31T15:27:27;16.15;;;9.52;;
14516;SDS011;7344;50.864;4.362;2022-10-31T15:29:55;18.08;;;8.80;;
14516;SDS011;7344;50.864;4.362;2022-10-31T15:32:22;16.83;;;8.43;;
14516;SDS011;7344;50.864;4.362;2022-10-31T15:34:53;17.20;;;9.27;;
14516;SDS011;7344;50.864;4.362;2022-10-31T15:37:21;14.55;;;8.50;;
14516;SDS011;7344;50.864;4.362;2022-10-31T15:39:50;12.50;;;8.13;;
14516;SDS011;7344;50.864;4.362;2022-10-31T15:42:27;13.82;;;8.70;;
14516;SDS011;7344;50.864;4.362;2022-10-31T15:44:56;16.40;;;8.75;;
14516;SDS011;7344;50.864;4.362;2022-10-31T15:47:26;13.50;;;9.13;;
14516;SDS011;7344;50.864;4.362;2022-10-31T15:49:55;18.50;;;8.97;;
14516;SDS011;7344;50.864;4.362;2022-10-31T15:52:36;15.30;;;9.57;;
14516;SDS011;7344;50.864;4.362;2022-10-31T15:55:15;18.98;;;9.95;;
14516;SDS011;7344;50.864;4.362;2022-10-31T15:57:45;18.27;;;10.45;;
14516;SDS011;7344;50.864;4.362;2022-10-31T16:05:50;20.33;;;10.13;;
14516;SDS011;7344;50.864;4.362;2022-10-31T16:10:51;18.98;;;11.00;;
14516;SDS011;7344;50.864;4.362;2022-10-31T16:13:17;19.00;;;11.10;;
14516;SDS011;7344;50.864;4.362;2022-10-31T16:15:48;23.75;;;11.80;;
14516;SDS011;7344;50.864;4.362;2022-10-31T16:18:16;24.90;;;10.85;;
14516;SDS011;7344;50.864;4.362;2022-10-31T16:20:46;16.60;;;10.52;;
14516;SDS011;7344;50.864;4.362;2022-10-31T16:23:16;19.73;;;12.38;;
14516;SDS011;7344;50.864;4.362;2022-10-31T16:25:43;20.90;;;13.02;;
14516;SDS011;7344;50.864;4.362;2022-10-31T16:28:16;22.40;;;11.32;;
14516;SDS011;7344;50.864;4.362;2022-10-31T16:30:50;19.55;;;11.20;;
14516;SDS011;7344;50.864;4.362;2022-10-31T16:35:53;23.63;;;11.35;;
14516;SDS011;7344;50.864;4.362;2022-10-31T16:38:20;17.85;;;11.30;;
14516;SDS011;7344;50.864;4.362;2022-10-31T16:40:46;16.20;;;12.15;;
14516;SDS011;7344;50.864;4.362;2022-10-31T16:43:13;21.73;;;12.33;;
14516;SDS011;7344;50.864;4.362;2022-10-31T16:45:51;18.90;;;12.20;;
14516;SDS011;7344;50.864;4.362;2022-10-31T16:48:19;24.77;;;12.47;;
14516;SDS011;7344;50.864;4.362;2022-10-31T16:50:47;19.88;;;12.55;;
14516;SDS011;7344;50.864;4.362;2022-10-31T16:53:14;17.53;;;11.70;;
14516;SDS011;7344;50.864;4.362;2022-10-31T16:55:41;21.23;;;11.90;;
14516;SDS011;7344;50.864;4.362;2022-10-31T16:58:12;18.93;;;11.50;;
14516;SDS011;7344;50.864;4.362;2022-10-31T17:00:50;22.10;;;10.77;;
14516;SDS011;7344;50.864;4.362;2022-10-31T17:03:17;13.93;;;9.90;;
14516;SDS011;7344;50.864;4.362;2022-10-31T17:05:42;22.93;;;9.73;;
14516;SDS011;7344;50.864;4.362;2022-10-31T17:08:08;22.20;;;10.40;;
14516;SDS011;7344;50.864;4.362;2022-10-31T17:10:34;14.13;;;9.20;;
14516;SDS011;7344;50.864;4.362;2022-10-31T17:13:01;16.13;;;8.70;;
14516;SDS011;7344;50.864;4.362;2022-10-31T17:15:30;13.33;;;8.03;;
14516;SDS011;7344;50.864;4.362;2022-10-31T17:18:04;16.60;;;7.93;;
14516;SDS011;7344;50.864;4.362;2022-10-31T17:20:29;11.57;;;7.20;;
14516;SDS011;7344;50.864;4.362;2022-10-31T17:22:56;13.60;;;7.47;;
14516;SDS011;7344;50.864;4.362;2022-10-31T17:25:24;11.70;;;6.87;;
14516;SDS011;7344;50.864;4.362;2022-10-31T17:27:51;14.53;;;6.93;;
14516;SDS011;7344;50.864;4.362;2022-10-31T17:30:17;10.67;;;6.50;;
14516;SDS011;7344;50.864;4.362;2022-10-31T17:32:44;13.03;;;6.20;;
14516;SDS011;7344;50.864;4.362;2022-10-31T17:35:11;14.90;;;6.47;;
14516;SDS011;7344;50.864;4.362;2022-10-31T17:37:38;9.90;;;6.87;;